sensor_id;sensor_type;location;lat;lon;timestamp;P1;durP1;ratioP1;P2;durP2;ratioP2
52170;SDS011;38689;47.552;18.820;2023-01-09T00:00:15;13.38;;;7.53;;
52170;SDS011;38689;47.552;18.820;2023-01-09T00:02:45;13.02;;;7.20;;
52170;SDS011;38689;47.552;18.820;2023-01-09T00:05:12;13.15;;;7.43;;
52170;SDS011;38689;47.552;18.820;2023-01-09T00:07:59;14.35;;;7.50;;
52170;SDS011;38689;47.552;18.820;2023-01-09T00:10:31;13.90;;;8.02;;
52170;SDS011;38689;47.552;18.820;2023-01-09T00:12:57;13.75;;;7.60;;
52170;SDS011;38689;47.552;18.820;2023-01-09T00:15:30;15.52;;;8.75;;
52170;SDS011;38689;47.552;18.820;2023-01-09T00:17:56;14.82;;;8.80;;
52170;SDS011;38689;47.552;18.820;2023-01-09T00:20:46;12.90;;;7.72;;
52170;SDS011;38689;47.552;18.820;2023-01-09T00:23:16;14.65;;;7.80;;
52170;SDS011;38689;47.552;18.820;2023-01-09T00:25:45;15.35;;;8.75;;
52170;SDS011;38689;47.552;18.820;2023-01-09T00:28:13;13.77;;;7.80;;
52170;SDS011;38689;47.552;18.820;2023-01-09T00:30:42;13.62;;;7.97;;
52170;SDS011;38689;47.552;18.820;2023-01-09T00:33:10;14.70;;;7.93;;
52170;SDS011;38689;47.552;18.820;2023-01-09T00:35:48;13.50;;;8.13;;
52170;SDS011;38689;47.552;18.820;2023-01-09T00:38:17;13.45;;;7.78;;
52170;SDS011;38689;47.552;18.820;2023-01-09T00:40:43;14.00;;;8.05;;
52170;SDS011;38689;47.552;18.820;2023-01-09T00:43:16;14.85;;;7.85;;
52170;SDS011;38689;47.552;18.820;2023-01-09T00:45:43;14.93;;;7.70;;
52170;SDS011;38689;47.552;18.820;2023-01-09T00:48:13;14.80;;;8.52;;
52170;SDS011;38689;47.552;18.820;2023-01-09T00:51:04;12.52;;;7.50;;
52170;SDS011;38689;47.552;18.820;2023-01-09T00:53:55;12.37;;;7.53;;
52170;SDS011;38689;47.552;18.820;2023-01-09T00:56:22;13.80;;;7.95;;
52170;SDS011;38689;47.552;18.820;2023-01-09T00:58:50;13.10;;;7.90;;
52170;SDS011;38689;47.552;18.820;2023-01-09T01:01:17;14.87;;;8.75;;
52170;SDS011;38689;47.552;18.820;2023-01-09T01:03:47;15.70;;;7.82;;
52170;SDS011;38689;47.552;18.820;2023-01-09T01:06:13;14.55;;;8.25;;
52170;SDS011;38689;47.552;18.820;2023-01-09T01:09:00;15.10;;;8.13;;
52170;SDS011;38689;47.552;18.820;2023-01-09T01:11:31;15.68;;;8.52;;
52170;SDS011;38689;47.552;18.820;2023-01-09T01:14:01;14.85;;;8.07;;
52170;SDS011;38689;47.552;18.820;2023-01-09T01:16:29;12.90;;;7.87;;
52170;SDS011;38689;47.552;18.820;2023-01-09T01:18:56;14.10;;;7.72;;
52170;SDS011;38689;47.552;18.820;2023-01-09T01:21:23;14.68;;;7.95;;
52170;SDS011;38689;47.552;18.820;2023-01-09T01:24:09;12.45;;;7.10;;
52170;SDS011;38689;47.552;18.820;2023-01-09T01:26:45;13.13;;;7.68;;
52170;SDS011;38689;47.552;18.820;2023-01-09T01:29:33;13.50;;;7.28;;
52170;SDS011;38689;47.552;18.820;2023-01-09T01:32:19;11.68;;;6.78;;
52170;SDS011;38689;47.552;18.820;2023-01-09T01:34:52;13.38;;;7.00;;
52170;SDS011;38689;47.552;18.820;2023-01-09T01:37:18;12.88;;;7.03;;
52170;SDS011;38689;47.552;18.820;2023-01-09T01:39:47;12.98;;;6.80;;
52170;SDS011;38689;47.552;18.820;2023-01-09T01:42:16;11.55;;;6.60;;
52170;SDS011;38689;47.552;18.820;2023-01-09T01:44:56;10.88;;;6.03;;
52170;SDS011;38689;47.552;18.820;2023-01-09T01:47:33;11.80;;;6.62;;
52170;SDS011;38689;47.552;18.820;2023-01-09T01:50:06;12.07;;;6.40;;
52170;SDS011;38689;47.552;18.820;2023-01-09T01:52:35;10.23;;;6.15;;
52170;SDS011;38689;47.552;18.820;2023-01-09T01:55:03;10.68;;;6.70;;
52170;SDS011;38689;47.552;18.820;2023-01-09T01:57:48;10.82;;;6.20;;
52170;SDS011;38689;47.552;18.820;2023-01-09T02:00:34;10.57;;;5.68;;
52170;SDS011;38689;47.552;18.820;2023-01-09T02:03:06;10.35;;;6.20;;
52170;SDS011;38689;47.552;18.820;2023-01-09T02:05:36;10.38;;;5.82;;
52170;SDS011;38689;47.552;18.820;2023-01-09T02:08:05;9.82;;;5.70;;
52170;SDS011;38689;47.552;18.820;2023-01-09T02:10:32;12.43;;;6.43;;
52170;SDS011;38689;47.552;18.820;2023-01-09T02:13:00;10.25;;;6.03;;
52170;SDS011;38689;47.552;18.820;2023-01-09T02:15:28;9.88;;;5.87;;
52170;SDS011;38689;47.552;18.820;2023-01-09T02:21:04;10.35;;;5.95;;
52170;SDS011;38689;47.552;18.820;2023-01-09T02:24:00;9.80;;;5.95;;
52170;SDS011;38689;47.552;18.820;2023-01-09T02:37:56;9.82;;;4.70;;
52170;SDS011;38689;47.552;18.820;2023-01-09T02:43:04;9.43;;;5.43;;
52170;SDS011;38689;47.552;18.820;2023-01-09T02:45:50;7.97;;;5.03;;
52170;SDS011;38689;47.552;18.820;2023-01-09T02:48:50;10.50;;;5.40;;
52170;SDS011;38689;47.552;18.820;2023-01-09T02:51:20;8.98;;;5.00;;
52170;SDS011;38689;47.552;18.820;2023-01-09T02:54:26;9.73;;;5.72;;
52170;SDS011;38689;47.552;18.820;2023-01-09T02:59:26;10.55;;;5.70;;
52170;SDS011;38689;47.552;18.820;2023-01-09T03:02:22;9.95;;;5.57;;
52170;SDS011;38689;47.552;18.820;2023-01-09T03:05:15;9.73;;;5.37;;
52170;SDS011;38689;47.552;18.820;2023-01-09T03:10:31;9.75;;;5.87;;
52170;SDS011;38689;47.552;18.820;2023-01-09T03:13:03;8.65;;;5.18;;
52170;SDS011;38689;47.552;18.820;2023-01-09T03:15:35;9.90;;;5.55;;
52170;SDS011;38689;47.552;18.820;2023-01-09T03:18:03;9.88;;;5.62;;
52170;SDS011;38689;47.552;18.820;2023-01-09T03:20:35;8.93;;;5.80;;
52170;SDS011;38689;47.552;18.820;2023-01-09T03:23:05;10.45;;;5.72;;
52170;SDS011;38689;47.552;18.820;2023-01-09T03:25:34;10.00;;;5.28;;
52170;SDS011;38689;47.552;18.820;2023-01-09T03:28:25;10.35;;;5.72;;
52170;SDS011;38689;47.552;18.820;2023-01-09T03:30:53;9.65;;;5.60;;
52170;SDS011;38689;47.552;18.820;2023-01-09T03:33:20;11.10;;;5.45;;
52170;SDS011;38689;47.552;18.820;2023-01-09T03:35:47;9.57;;;5.57;;
52170;SDS011;38689;47.552;18.820;2023-01-09T03:38:36;9.85;;;5.43;;
52170;SDS011;38689;47.552;18.820;2023-01-09T03:41:06;10.10;;;5.80;;
52170;SDS011;38689;47.552;18.820;2023-01-09T03:43:35;10.73;;;5.65;;
52170;SDS011;38689;47.552;18.820;2023-01-09T03:46:26;11.70;;;5.93;;
52170;SDS011;38689;47.552;18.820;2023-01-09T03:48:54;10.95;;;6.03;;
52170;SDS011;38689;47.552;18.820;2023-01-09T03:51:20;12.63;;;5.90;;
52170;SDS011;38689;47.552;18.820;2023-01-09T03:53:46;10.63;;;6.30;;
52170;SDS011;38689;47.552;18.820;2023-01-09T03:56:13;12.02;;;6.25;;
52170;SDS011;38689;47.552;18.820;2023-01-09T03:58:39;10.43;;;6.03;;
52170;SDS011;38689;47.552;18.820;2023-01-09T04:01:06;11.35;;;6.50;;
52170;SDS011;38689;47.552;18.820;2023-01-09T04:03:41;11.63;;;6.65;;
52170;SDS011;38689;47.552;18.820;2023-01-09T04:06:07;11.68;;;7.10;;
52170;SDS011;38689;47.552;18.820;2023-01-09T04:08:33;12.57;;;6.50;;
52170;SDS011;38689;47.552;18.820;2023-01-09T04:10:59;12.65;;;6.97;;
52170;SDS011;38689;47.552;18.820;2023-01-09T04:13:26;13.05;;;7.45;;
52170;SDS011;38689;47.552;18.820;2023-01-09T04:15:54;12.13;;;7.10;;
52170;SDS011;38689;47.552;18.820;2023-01-09T04:18:25;13.93;;;7.72;;
52170;SDS011;38689;47.552;18.820;2023-01-09T04:20:51;12.15;;;7.37;;
52170;SDS011;38689;47.552;18.820;2023-01-09T04:23:23;14.50;;;7.45;;
52170;SDS011;38689;47.552;18.820;2023-01-09T04:26:04;13.10;;;7.62;;
52170;SDS011;38689;47.552;18.820;2023-01-09T04:28:30;14.55;;;7.68;;
52170;SDS011;38689;47.552;18.820;2023-01-09T04:31:05;12.85;;;7.70;;
52170;SDS011;38689;47.552;18.820;2023-01-09T04:33:32;15.63;;;7.78;;
52170;SDS011;38689;47.552;18.820;2023-01-09T04:36:05;14.57;;;7.70;;
52170;SDS011;38689;47.552;18.820;2023-01-09T04:38:34;13.48;;;7.60;;
52170;SDS011;38689;47.552;18.820;2023-01-09T04:41:13;13.95;;;7.80;;
52170;SDS011;38689;47.552;18.820;2023-01-09T04:44:04;14.35;;;7.82;;
52170;SDS011;38689;47.552;18.820;2023-01-09T04:46:31;13.98;;;7.47;;
52170;SDS011;38689;47.552;18.820;2023-01-09T04:48:58;14.15;;;7.97;;
52170;SDS011;38689;47.552;18.820;2023-01-09T04:51:25;15.20;;;8.10;;
52170;SDS011;38689;47.552;18.820;2023-01-09T04:53:51;13.50;;;8.02;;
52170;SDS011;38689;47.552;18.820;2023-01-09T04:56:17;15.02;;;8.45;;
52170;SDS011;38689;47.552;18.820;2023-01-09T04:59:06;14.35;;;8.20;;
52170;SDS011;38689;47.552;18.820;2023-01-09T05:01:34;14.95;;;8.32;;
52170;SDS011;38689;47.552;18.820;2023-01-09T05:04:04;16.83;;;8.85;;
52170;SDS011;38689;47.552;18.820;2023-01-09T05:06:30;17.58;;;9.73;;
52170;SDS011;38689;47.552;18.820;2023-01-09T05:08:57;15.55;;;8.80;;
52170;SDS011;38689;47.552;18.820;2023-01-09T05:11:23;14.43;;;8.07;;
52170;SDS011;38689;47.552;18.820;2023-01-09T05:13:53;15.18;;;7.90;;
52170;SDS011;38689;47.552;18.820;2023-01-09T05:16:23;13.48;;;8.13;;
52170;SDS011;38689;47.552;18.820;2023-01-09T05:19:10;15.93;;;8.10;;
52170;SDS011;38689;47.552;18.820;2023-01-09T05:21:36;15.77;;;9.05;;
52170;SDS011;38689;47.552;18.820;2023-01-09T05:24:03;16.15;;;8.20;;
52170;SDS011;38689;47.552;18.820;2023-01-09T05:26:29;15.98;;;8.23;;
52170;SDS011;38689;47.552;18.820;2023-01-09T05:28:57;13.55;;;7.50;;
52170;SDS011;38689;47.552;18.820;2023-01-09T05:31:24;13.32;;;7.65;;
52170;SDS011;38689;47.552;18.820;2023-01-09T05:33:51;14.20;;;7.62;;
52170;SDS011;38689;47.552;18.820;2023-01-09T05:36:25;13.48;;;7.45;;
52170;SDS011;38689;47.552;18.820;2023-01-09T05:38:59;13.23;;;8.02;;
52170;SDS011;38689;47.552;18.820;2023-01-09T05:41:27;14.10;;;7.87;;
52170;SDS011;38689;47.552;18.820;2023-01-09T05:43:58;15.82;;;8.65;;
52170;SDS011;38689;47.552;18.820;2023-01-09T05:46:31;13.20;;;7.78;;
52170;SDS011;38689;47.552;18.820;2023-01-09T05:49:06;12.48;;;7.35;;
52170;SDS011;38689;47.552;18.820;2023-01-09T05:51:34;15.20;;;8.30;;
52170;SDS011;38689;47.552;18.820;2023-01-09T05:54:05;12.40;;;7.72;;
52170;SDS011;38689;47.552;18.820;2023-01-09T06:40:19;17.55;;;9.77;;
52170;SDS011;38689;47.552;18.820;2023-01-09T06:42:48;18.40;;;9.88;;
52170;SDS011;38689;47.552;18.820;2023-01-09T08:32:34;20.77;;;11.00;;
52170;SDS011;38689;47.552;18.820;2023-01-09T08:36:16;21.23;;;10.93;;
52170;SDS011;38689;47.552;18.820;2023-01-09T08:39:23;18.55;;;10.25;;
52170;SDS011;38689;47.552;18.820;2023-01-09T08:50:18;21.83;;;11.73;;
52170;SDS011;38689;47.552;18.820;2023-01-09T08:52:52;20.92;;;10.98;;
52170;SDS011;38689;47.552;18.820;2023-01-09T08:55:27;18.95;;;10.15;;
52170;SDS011;38689;47.552;18.820;2023-01-09T08:57:55;23.12;;;11.25;;
52170;SDS011;38689;47.552;18.820;2023-01-09T09:00:45;21.55;;;11.15;;
52170;SDS011;38689;47.552;18.820;2023-01-09T09:03:51;22.23;;;11.20;;
52170;SDS011;38689;47.552;18.820;2023-01-09T09:06:23;21.12;;;11.12;;
52170;SDS011;38689;47.552;18.820;2023-01-09T09:09:09;24.10;;;11.70;;
52170;SDS011;38689;47.552;18.820;2023-01-09T09:11:59;23.83;;;11.98;;
52170;SDS011;38689;47.552;18.820;2023-01-09T09:14:34;25.10;;;12.15;;
52170;SDS011;38689;47.552;18.820;2023-01-09T09:17:22;23.58;;;11.07;;
52170;SDS011;38689;47.552;18.820;2023-01-09T13:24:54;22.87;;;12.15;;
52170;SDS011;38689;47.552;18.820;2023-01-09T13:37:55;27.10;;;14.57;;
52170;SDS011;38689;47.552;18.820;2023-01-09T14:41:54;31.65;;;17.90;;
